sensor_id;sensor_type;location;lat;lon;timestamp;temperature;humidity
7214;DHT22;3648;50.614;13.830;2022-08-03T00:01:06;21.60;1.00
7214;DHT22;3648;50.614;13.830;2022-08-03T00:03:33;21.60;1.00
7214;DHT22;3648;50.614;13.830;2022-08-03T00:06:00;21.60;1.00
7214;DHT22;3648;50.614;13.830;2022-08-03T00:08:27;21.60;1.00
7214;DHT22;3648;50.614;13.830;2022-08-03T00:10:54;21.50;1.00
7214;DHT22;3648;50.614;13.830;2022-08-03T00:13:23;21.50;1.00
7214;DHT22;3648;50.614;13.830;2022-08-03T00:15:50;21.40;1.00
7214;DHT22;3648;50.614;13.830;2022-08-03T00:18:17;21.40;1.00
7214;DHT22;3648;50.614;13.830;2022-08-03T00:20:44;21.30;1.00
7214;DHT22;3648;50.614;13.830;2022-08-03T00:23:11;21.30;1.00
7214;DHT22;3648;50.614;13.830;2022-08-03T00:25:38;21.20;1.00
7214;DHT22;3648;50.614;13.830;2022-08-03T00:28:06;21.20;1.00
7214;DHT22;3648;50.614;13.830;2022-08-03T00:30:34;21.10;1.00
7214;DHT22;3648;50.614;13.830;2022-08-03T00:33:02;21.10;1.00
7214;DHT22;3648;50.614;13.830;2022-08-03T00:35:29;21.00;1.00
7214;DHT22;3648;50.614;13.830;2022-08-03T00:37:57;20.80;1.00
7214;DHT22;3648;50.614;13.830;2022-08-03T00:40:24;20.90;1.00
7214;DHT22;3648;50.614;13.830;2022-08-03T00:42:53;20.90;1.00
7214;DHT22;3648;50.614;13.830;2022-08-03T00:45:22;20.80;1.00
7214;DHT22;3648;50.614;13.830;2022-08-03T00:47:52;20.80;1.00
7214;DHT22;3648;50.614;13.830;2022-08-03T00:50:24;20.80;1.00
7214;DHT22;3648;50.614;13.830;2022-08-03T00:52:53;20.80;1.00
7214;DHT22;3648;50.614;13.830;2022-08-03T00:55:20;20.80;1.00
7214;DHT22;3648;50.614;13.830;2022-08-03T00:57:47;20.80;1.00
7214;DHT22;3648;50.614;13.830;2022-08-03T01:00:17;20.80;1.00
7214;DHT22;3648;50.614;13.830;2022-08-03T01:02:44;20.80;1.00
7214;DHT22;3648;50.614;13.830;2022-08-03T01:05:13;20.80;1.00
7214;DHT22;3648;50.614;13.830;2022-08-03T01:07:49;20.80;1.00
7214;DHT22;3648;50.614;13.830;2022-08-03T01:10:25;20.80;1.00
7214;DHT22;3648;50.614;13.830;2022-08-03T01:12:58;20.80;1.00
7214;DHT22;3648;50.614;13.830;2022-08-03T01:15:34;20.70;1.00
7214;DHT22;3648;50.614;13.830;2022-08-03T01:18:08;20.70;1.00
7214;DHT22;3648;50.614;13.830;2022-08-03T01:20:42;20.70;1.00
7214;DHT22;3648;50.614;13.830;2022-08-03T01:23:26;20.60;1.00
7214;DHT22;3648;50.614;13.830;2022-08-03T01:26:08;20.60;1.00
7214;DHT22;3648;50.614;13.830;2022-08-03T01:28:57;20.50;1.00
7214;DHT22;3648;50.614;13.830;2022-08-03T01:31:30;20.50;1.00
7214;DHT22;3648;50.614;13.830;2022-08-03T01:34:01;20.50;1.00
7214;DHT22;3648;50.614;13.830;2022-08-03T01:36:32;20.40;1.00
7214;DHT22;3648;50.614;13.830;2022-08-03T01:39:02;20.40;1.00
7214;DHT22;3648;50.614;13.830;2022-08-03T01:41:36;20.40;1.00
7214;DHT22;3648;50.614;13.830;2022-08-03T01:44:08;20.40;1.00
7214;DHT22;3648;50.614;13.830;2022-08-03T01:46:37;20.40;1.00
7214;DHT22;3648;50.614;13.830;2022-08-03T01:49:07;20.30;1.00
7214;DHT22;3648;50.614;13.830;2022-08-03T01:51:36;20.40;1.00
7214;DHT22;3648;50.614;13.830;2022-08-03T01:54:04;20.30;1.00
7214;DHT22;3648;50.614;13.830;2022-08-03T01:56:33;20.30;1.00
7214;DHT22;3648;50.614;13.830;2022-08-03T01:59:02;20.30;1.00
7214;DHT22;3648;50.614;13.830;2022-08-03T02:01:30;20.30;1.00
7214;DHT22;3648;50.614;13.830;2022-08-03T02:04:00;20.20;1.00
7214;DHT22;3648;50.614;13.830;2022-08-03T02:06:30;20.20;1.00
7214;DHT22;3648;50.614;13.830;2022-08-03T02:08:58;20.10;1.00
7214;DHT22;3648;50.614;13.830;2022-08-03T02:11:26;20.00;1.00
7214;DHT22;3648;50.614;13.830;2022-08-03T02:13:57;20.00;1.00
7214;DHT22;3648;50.614;13.830;2022-08-03T02:16:28;19.90;1.00
7214;DHT22;3648;50.614;13.830;2022-08-03T02:18:58;19.80;1.00
7214;DHT22;3648;50.614;13.830;2022-08-03T02:21:28;19.70;1.00
7214;DHT22;3648;50.614;13.830;2022-08-03T02:23:55;19.70;1.00
7214;DHT22;3648;50.614;13.830;2022-08-03T02:26:23;19.70;1.00
7214;DHT22;3648;50.614;13.830;2022-08-03T02:28:54;19.60;1.00
7214;DHT22;3648;50.614;13.830;2022-08-03T02:31:23;19.50;1.00
7214;DHT22;3648;50.614;13.830;2022-08-03T02:33:54;19.50;1.00
7214;DHT22;3648;50.614;13.830;2022-08-03T02:36:27;19.50;1.00
7214;DHT22;3648;50.614;13.830;2022-08-03T02:38:57;19.40;1.00
7214;DHT22;3648;50.614;13.830;2022-08-03T02:41:30;19.40;1.00
7214;DHT22;3648;50.614;13.830;2022-08-03T02:43:59;19.40;1.00
7214;DHT22;3648;50.614;13.830;2022-08-03T02:46:30;19.30;1.00
7214;DHT22;3648;50.614;13.830;2022-08-03T02:49:00;19.10;1.00
7214;DHT22;3648;50.614;13.830;2022-08-03T02:51:30;19.00;1.00
7214;DHT22;3648;50.614;13.830;2022-08-03T02:53:59;19.00;1.00
7214;DHT22;3648;50.614;13.830;2022-08-03T02:56:29;19.00;1.00
7214;DHT22;3648;50.614;13.830;2022-08-03T02:58:57;19.00;1.00
7214;DHT22;3648;50.614;13.830;2022-08-03T03:01:26;18.90;1.00
7214;DHT22;3648;50.614;13.830;2022-08-03T03:03:55;18.90;1.00
7214;DHT22;3648;50.614;13.830;2022-08-03T03:06:23;18.90;1.00
7214;DHT22;3648;50.614;13.830;2022-08-03T03:08:53;18.80;1.00
7214;DHT22;3648;50.614;13.830;2022-08-03T03:11:20;18.80;1.00
7214;DHT22;3648;50.614;13.830;2022-08-03T03:13:48;18.80;1.00
7214;DHT22;3648;50.614;13.830;2022-08-03T03:16:15;18.80;1.00
7214;DHT22;3648;50.614;13.830;2022-08-03T03:18:46;18.70;1.00
7214;DHT22;3648;50.614;13.830;2022-08-03T03:21:17;18.70;1.00
7214;DHT22;3648;50.614;13.830;2022-08-03T03:23:46;18.70;1.00
7214;DHT22;3648;50.614;13.830;2022-08-03T03:26:15;18.70;1.00
7214;DHT22;3648;50.614;13.830;2022-08-03T03:28:45;18.70;1.00
7214;DHT22;3648;50.614;13.830;2022-08-03T03:31:12;18.60;1.00
7214;DHT22;3648;50.614;13.830;2022-08-03T03:33:39;18.60;1.00
7214;DHT22;3648;50.614;13.830;2022-08-03T03:36:07;18.60;1.00
7214;DHT22;3648;50.614;13.830;2022-08-03T03:38:34;18.60;1.00
7214;DHT22;3648;50.614;13.830;2022-08-03T03:41:03;18.50;1.00
7214;DHT22;3648;50.614;13.830;2022-08-03T03:43:32;18.50;1.00
7214;DHT22;3648;50.614;13.830;2022-08-03T03:45:59;18.50;1.00
7214;DHT22;3648;50.614;13.830;2022-08-03T03:48:27;18.50;1.00
7214;DHT22;3648;50.614;13.830;2022-08-03T03:50:54;18.50;1.00
7214;DHT22;3648;50.614;13.830;2022-08-03T03:53:22;18.40;1.00
7214;DHT22;3648;50.614;13.830;2022-08-03T03:55:51;18.50;1.00
7214;DHT22;3648;50.614;13.830;2022-08-03T03:58:19;18.50;1.00
7214;DHT22;3648;50.614;13.830;2022-08-03T04:00:47;18.50;1.00
7214;DHT22;3648;50.614;13.830;2022-08-03T04:03:14;18.50;1.00
7214;DHT22;3648;50.614;13.830;2022-08-03T04:05:42;18.40;1.00
7214;DHT22;3648;50.614;13.830;2022-08-03T04:08:29;18.50;1.00
7214;DHT22;3648;50.614;13.830;2022-08-03T04:11:16;18.40;1.00
7214;DHT22;3648;50.614;13.830;2022-08-03T04:13:49;18.20;1.00
7214;DHT22;3648;50.614;13.830;2022-08-03T04:16:21;18.20;1.00
7214;DHT22;3648;50.614;13.830;2022-08-03T04:18:51;18.30;1.00
7214;DHT22;3648;50.614;13.830;2022-08-03T04:21:20;18.40;1.00
7214;DHT22;3648;50.614;13.830;2022-08-03T04:23:50;18.40;1.00
7214;DHT22;3648;50.614;13.830;2022-08-03T04:26:19;18.40;1.00
7214;DHT22;3648;50.614;13.830;2022-08-03T04:28:48;18.40;1.00
7214;DHT22;3648;50.614;13.830;2022-08-03T04:31:19;18.50;1.00
7214;DHT22;3648;50.614;13.830;2022-08-03T04:33:48;18.40;1.00
7214;DHT22;3648;50.614;13.830;2022-08-03T04:36:20;18.50;1.00
7214;DHT22;3648;50.614;13.830;2022-08-03T04:38:54;18.50;1.00
7214;DHT22;3648;50.614;13.830;2022-08-03T04:41:24;18.40;1.00
7214;DHT22;3648;50.614;13.830;2022-08-03T04:43:54;18.50;1.00
7214;DHT22;3648;50.614;13.830;2022-08-03T04:46:26;18.50;1.00
7214;DHT22;3648;50.614;13.830;2022-08-03T04:48:54;18.50;1.00
7214;DHT22;3648;50.614;13.830;2022-08-03T04:51:22;18.50;1.00
7214;DHT22;3648;50.614;13.830;2022-08-03T04:53:49;18.60;1.00
7214;DHT22;3648;50.614;13.830;2022-08-03T04:56:16;18.60;1.00
7214;DHT22;3648;50.614;13.830;2022-08-03T04:58:43;18.60;1.00
7214;DHT22;3648;50.614;13.830;2022-08-03T05:01:10;18.70;1.00
7214;DHT22;3648;50.614;13.830;2022-08-03T05:03:39;18.70;1.00
7214;DHT22;3648;50.614;13.830;2022-08-03T05:06:06;18.70;1.00
7214;DHT22;3648;50.614;13.830;2022-08-03T05:08:34;18.80;1.00
7214;DHT22;3648;50.614;13.830;2022-08-03T05:11:01;18.80;1.00
7214;DHT22;3648;50.614;13.830;2022-08-03T05:13:28;18.80;1.00
7214;DHT22;3648;50.614;13.830;2022-08-03T05:15:55;18.80;1.00
7214;DHT22;3648;50.614;13.830;2022-08-03T05:18:22;18.80;1.00
7214;DHT22;3648;50.614;13.830;2022-08-03T05:20:50;18.90;1.00
7214;DHT22;3648;50.614;13.830;2022-08-03T05:23:17;18.90;1.00
7214;DHT22;3648;50.614;13.830;2022-08-03T05:25:44;19.00;1.00
7214;DHT22;3648;50.614;13.830;2022-08-03T05:28:11;19.00;1.00
7214;DHT22;3648;50.614;13.830;2022-08-03T05:30:38;19.00;1.00
7214;DHT22;3648;50.614;13.830;2022-08-03T05:33:05;19.10;1.00
7214;DHT22;3648;50.614;13.830;2022-08-03T05:35:33;19.10;1.00
7214;DHT22;3648;50.614;13.830;2022-08-03T05:38:02;19.10;1.00
7214;DHT22;3648;50.614;13.830;2022-08-03T05:40:29;19.20;1.00
7214;DHT22;3648;50.614;13.830;2022-08-03T05:42:56;19.30;1.00
7214;DHT22;3648;50.614;13.830;2022-08-03T05:45:23;19.40;1.00
7214;DHT22;3648;50.614;13.830;2022-08-03T05:47:51;19.50;1.00
7214;DHT22;3648;50.614;13.830;2022-08-03T05:50:19;19.50;1.00
7214;DHT22;3648;50.614;13.830;2022-08-03T05:52:46;19.60;1.00
7214;DHT22;3648;50.614;13.830;2022-08-03T05:55:15;19.60;1.00
7214;DHT22;3648;50.614;13.830;2022-08-03T05:57:42;19.70;1.00
7214;DHT22;3648;50.614;13.830;2022-08-03T06:00:12;19.70;1.00
7214;DHT22;3648;50.614;13.830;2022-08-03T06:02:40;19.80;1.00
7214;DHT22;3648;50.614;13.830;2022-08-03T06:05:08;19.90;1.00
7214;DHT22;3648;50.614;13.830;2022-08-03T06:07:35;20.00;1.00
7214;DHT22;3648;50.614;13.830;2022-08-03T06:10:03;20.00;1.00
7214;DHT22;3648;50.614;13.830;2022-08-03T06:12:31;20.10;1.00
7214;DHT22;3648;50.614;13.830;2022-08-03T06:15:00;20.20;1.00
7214;DHT22;3648;50.614;13.830;2022-08-03T06:17:28;20.30;1.00
7214;DHT22;3648;50.614;13.830;2022-08-03T06:19:55;20.40;1.00
7214;DHT22;3648;50.614;13.830;2022-08-03T06:22:22;20.40;1.00
7214;DHT22;3648;50.614;13.830;2022-08-03T06:24:49;20.50;1.00
7214;DHT22;3648;50.614;13.830;2022-08-03T06:27:16;20.50;1.00
7214;DHT22;3648;50.614;13.830;2022-08-03T06:29:44;20.60;1.00
7214;DHT22;3648;50.614;13.830;2022-08-03T06:32:11;20.60;1.00
7214;DHT22;3648;50.614;13.830;2022-08-03T06:34:38;20.60;1.00
7214;DHT22;3648;50.614;13.830;2022-08-03T06:37:05;20.70;1.00
7214;DHT22;3648;50.614;13.830;2022-08-03T06:39:32;20.70;1.00
7214;DHT22;3648;50.614;13.830;2022-08-03T06:41:59;20.80;1.00
7214;DHT22;3648;50.614;13.830;2022-08-03T06:44:27;20.90;1.00
7214;DHT22;3648;50.614;13.830;2022-08-03T06:46:55;20.90;1.00
7214;DHT22;3648;50.614;13.830;2022-08-03T06:49:23;21.00;1.00
7214;DHT22;3648;50.614;13.830;2022-08-03T06:51:50;21.10;1.00
7214;DHT22;3648;50.614;13.830;2022-08-03T06:54:18;21.20;1.00
7214;DHT22;3648;50.614;13.830;2022-08-03T06:56:48;21.20;1.00
7214;DHT22;3648;50.614;13.830;2022-08-03T06:59:16;21.20;1.00
7214;DHT22;3648;50.614;13.830;2022-08-03T07:01:43;21.30;1.00
7214;DHT22;3648;50.614;13.830;2022-08-03T07:04:12;21.30;1.00
7214;DHT22;3648;50.614;13.830;2022-08-03T07:06:39;21.40;1.00
7214;DHT22;3648;50.614;13.830;2022-08-03T07:09:06;21.40;1.00
7214;DHT22;3648;50.614;13.830;2022-08-03T07:11:33;21.50;1.00
7214;DHT22;3648;50.614;13.830;2022-08-03T07:14:00;21.50;1.00
7214;DHT22;3648;50.614;13.830;2022-08-03T07:16:27;21.60;1.00
7214;DHT22;3648;50.614;13.830;2022-08-03T07:18:54;21.70;1.00
7214;DHT22;3648;50.614;13.830;2022-08-03T07:21:23;21.80;1.00
7214;DHT22;3648;50.614;13.830;2022-08-03T07:23:50;21.90;1.00
7214;DHT22;3648;50.614;13.830;2022-08-03T07:26:17;22.00;1.00
7214;DHT22;3648;50.614;13.830;2022-08-03T07:28:44;22.10;1.00
7214;DHT22;3648;50.614;13.830;2022-08-03T07:31:12;22.10;1.00
7214;DHT22;3648;50.614;13.830;2022-08-03T07:33:39;22.20;1.00
7214;DHT22;3648;50.614;13.830;2022-08-03T07:36:06;22.30;1.00
7214;DHT22;3648;50.614;13.830;2022-08-03T07:38:35;22.40;1.00
7214;DHT22;3648;50.614;13.830;2022-08-03T07:41:03;22.50;1.00
7214;DHT22;3648;50.614;13.830;2022-08-03T07:43:30;22.60;1.00
7214;DHT22;3648;50.614;13.830;2022-08-03T07:45:57;22.60;1.00
7214;DHT22;3648;50.614;13.830;2022-08-03T07:48:24;22.60;1.00
7214;DHT22;3648;50.614;13.830;2022-08-03T07:50:51;22.70;1.00
7214;DHT22;3648;50.614;13.830;2022-08-03T07:53:18;22.70;1.00
7214;DHT22;3648;50.614;13.830;2022-08-03T07:55:47;22.80;1.00
7214;DHT22;3648;50.614;13.830;2022-08-03T07:58:14;22.80;1.00
7214;DHT22;3648;50.614;13.830;2022-08-03T08:00:42;22.90;1.00
7214;DHT22;3648;50.614;13.830;2022-08-03T08:03:10;22.90;1.00
7214;DHT22;3648;50.614;13.830;2022-08-03T08:05:38;23.00;1.00
7214;DHT22;3648;50.614;13.830;2022-08-03T08:08:06;23.10;1.00
7214;DHT22;3648;50.614;13.830;2022-08-03T08:10:33;23.20;1.00
7214;DHT22;3648;50.614;13.830;2022-08-03T08:13:02;23.30;1.00
7214;DHT22;3648;50.614;13.830;2022-08-03T08:15:29;23.40;1.00
7214;DHT22;3648;50.614;13.830;2022-08-03T08:17:58;23.60;1.00
7214;DHT22;3648;50.614;13.830;2022-08-03T08:20:27;23.70;1.00
7214;DHT22;3648;50.614;13.830;2022-08-03T08:22:55;23.80;1.00
7214;DHT22;3648;50.614;13.830;2022-08-03T08:25:23;23.90;1.00
7214;DHT22;3648;50.614;13.830;2022-08-03T08:27:51;23.90;1.00
7214;DHT22;3648;50.614;13.830;2022-08-03T08:30:21;24.00;1.00
7214;DHT22;3648;50.614;13.830;2022-08-03T08:32:49;24.20;1.00
7214;DHT22;3648;50.614;13.830;2022-08-03T08:35:17;24.20;1.00
7214;DHT22;3648;50.614;13.830;2022-08-03T08:37:44;24.30;1.00
7214;DHT22;3648;50.614;13.830;2022-08-03T08:40:12;24.50;1.00
7214;DHT22;3648;50.614;13.830;2022-08-03T08:42:39;24.60;1.00
7214;DHT22;3648;50.614;13.830;2022-08-03T08:45:07;24.70;1.00
7214;DHT22;3648;50.614;13.830;2022-08-03T08:47:39;24.80;1.00
7214;DHT22;3648;50.614;13.830;2022-08-03T08:50:07;24.90;1.00
7214;DHT22;3648;50.614;13.830;2022-08-03T08:52:38;25.00;1.00
7214;DHT22;3648;50.614;13.830;2022-08-03T08:55:08;25.20;1.00
7214;DHT22;3648;50.614;13.830;2022-08-03T08:57:37;25.30;1.00
7214;DHT22;3648;50.614;13.830;2022-08-03T09:00:06;25.70;1.00
7214;DHT22;3648;50.614;13.830;2022-08-03T09:02:34;26.10;1.00
7214;DHT22;3648;50.614;13.830;2022-08-03T09:05:03;26.60;1.00
7214;DHT22;3648;50.614;13.830;2022-08-03T09:07:30;27.00;1.00
7214;DHT22;3648;50.614;13.830;2022-08-03T09:09:57;27.50;1.00
7214;DHT22;3648;50.614;13.830;2022-08-03T09:12:24;27.80;1.00
7214;DHT22;3648;50.614;13.830;2022-08-03T09:14:52;28.10;1.00
7214;DHT22;3648;50.614;13.830;2022-08-03T09:17:20;28.50;1.00
7214;DHT22;3648;50.614;13.830;2022-08-03T09:20:06;28.90;1.00
7214;DHT22;3648;50.614;13.830;2022-08-03T09:22:34;29.30;1.00
7214;DHT22;3648;50.614;13.830;2022-08-03T09:25:03;29.60;1.00
7214;DHT22;3648;50.614;13.830;2022-08-03T09:27:41;29.80;1.00
7214;DHT22;3648;50.614;13.830;2022-08-03T09:30:12;30.20;1.00
7214;DHT22;3648;50.614;13.830;2022-08-03T09:32:41;30.20;1.00
7214;DHT22;3648;50.614;13.830;2022-08-03T09:35:12;30.40;1.00
7214;DHT22;3648;50.614;13.830;2022-08-03T09:37:40;30.50;1.00
7214;DHT22;3648;50.614;13.830;2022-08-03T09:40:07;30.70;1.00
7214;DHT22;3648;50.614;13.830;2022-08-03T09:42:35;31.00;1.00
7214;DHT22;3648;50.614;13.830;2022-08-03T09:45:04;31.00;1.00
7214;DHT22;3648;50.614;13.830;2022-08-03T09:47:32;31.30;1.00
7214;DHT22;3648;50.614;13.830;2022-08-03T09:50:02;31.40;1.00
7214;DHT22;3648;50.614;13.830;2022-08-03T09:52:32;31.50;1.00
7214;DHT22;3648;50.614;13.830;2022-08-03T09:55:00;31.70;1.00
7214;DHT22;3648;50.614;13.830;2022-08-03T09:57:28;31.90;1.00
7214;DHT22;3648;50.614;13.830;2022-08-03T10:00:06;32.00;1.00
7214;DHT22;3648;50.614;13.830;2022-08-03T10:02:35;32.20;1.00
7214;DHT22;3648;50.614;13.830;2022-08-03T10:05:03;32.30;1.00
7214;DHT22;3648;50.614;13.830;2022-08-03T10:07:41;32.40;1.00
7214;DHT22;3648;50.614;13.830;2022-08-03T10:10:09;32.50;1.00
7214;DHT22;3648;50.614;13.830;2022-08-03T10:12:36;32.50;1.00
7214;DHT22;3648;50.614;13.830;2022-08-03T10:15:05;32.60;1.00
7214;DHT22;3648;50.614;13.830;2022-08-03T10:17:32;32.80;1.00
7214;DHT22;3648;50.614;13.830;2022-08-03T10:19:59;32.70;1.00
7214;DHT22;3648;50.614;13.830;2022-08-03T10:22:32;32.70;1.00
7214;DHT22;3648;50.614;13.830;2022-08-03T10:25:03;32.80;99.90
7214;DHT22;3648;50.614;13.830;2022-08-03T10:27:32;32.90;99.90
7214;DHT22;3648;50.614;13.830;2022-08-03T10:30:01;33.00;99.90
7214;DHT22;3648;50.614;13.830;2022-08-03T10:32:33;33.00;99.90
7214;DHT22;3648;50.614;13.830;2022-08-03T10:35:08;32.60;99.90
7214;DHT22;3648;50.614;13.830;2022-08-03T10:37:41;32.80;99.90
7214;DHT22;3648;50.614;13.830;2022-08-03T10:40:12;32.80;99.90
7214;DHT22;3648;50.614;13.830;2022-08-03T10:42:41;32.80;99.90
7214;DHT22;3648;50.614;13.830;2022-08-03T10:45:14;32.90;99.90
7214;DHT22;3648;50.614;13.830;2022-08-03T10:47:43;32.90;99.90
7214;DHT22;3648;50.614;13.830;2022-08-03T10:50:11;32.70;99.90
7214;DHT22;3648;50.614;13.830;2022-08-03T10:52:56;32.80;99.90
7214;DHT22;3648;50.614;13.830;2022-08-03T10:55:30;33.00;99.90
7214;DHT22;3648;50.614;13.830;2022-08-03T10:58:51;33.10;99.90
7214;DHT22;3648;50.614;13.830;2022-08-03T11:01:36;33.10;99.90
7214;DHT22;3648;50.614;13.830;2022-08-03T11:04:16;33.30;99.90
7214;DHT22;3648;50.614;13.830;2022-08-03T11:06:45;33.30;99.90
7214;DHT22;3648;50.614;13.830;2022-08-03T11:09:16;33.30;99.90
7214;DHT22;3648;50.614;13.830;2022-08-03T11:11:45;33.20;99.90
7214;DHT22;3648;50.614;13.830;2022-08-03T11:14:14;33.30;99.90
7214;DHT22;3648;50.614;13.830;2022-08-03T11:16:43;33.30;99.90
7214;DHT22;3648;50.614;13.830;2022-08-03T11:19:12;33.20;99.90
7214;DHT22;3648;50.614;13.830;2022-08-03T11:21:53;33.20;99.90
7214;DHT22;3648;50.614;13.830;2022-08-03T11:27:39;32.90;99.90
7214;DHT22;3648;50.614;13.830;2022-08-03T11:30:08;32.80;99.90
7214;DHT22;3648;50.614;13.830;2022-08-03T11:32:56;32.80;99.90
7214;DHT22;3648;50.614;13.830;2022-08-03T11:35:25;32.70;99.90
7214;DHT22;3648;50.614;13.830;2022-08-03T11:38:04;32.70;99.90
7214;DHT22;3648;50.614;13.830;2022-08-03T11:40:38;32.70;99.90
7214;DHT22;3648;50.614;13.830;2022-08-03T11:43:07;32.70;99.90
7214;DHT22;3648;50.614;13.830;2022-08-03T11:45:35;32.60;99.90
7214;DHT22;3648;50.614;13.830;2022-08-03T11:48:13;32.70;99.90
7214;DHT22;3648;50.614;13.830;2022-08-03T11:50:41;32.70;99.90
7214;DHT22;3648;50.614;13.830;2022-08-03T11:53:14;32.50;99.90
7214;DHT22;3648;50.614;13.830;2022-08-03T11:55:42;32.70;99.90
7214;DHT22;3648;50.614;13.830;2022-08-03T11:58:19;32.60;99.90
7214;DHT22;3648;50.614;13.830;2022-08-03T12:00:47;32.70;99.90
7214;DHT22;3648;50.614;13.830;2022-08-03T12:03:15;32.60;99.90
7214;DHT22;3648;50.614;13.830;2022-08-03T12:05:45;32.70;99.90
7214;DHT22;3648;50.614;13.830;2022-08-03T12:08:14;32.80;99.90
7214;DHT22;3648;50.614;13.830;2022-08-03T12:10:47;32.90;99.90
7214;DHT22;3648;50.614;13.830;2022-08-03T12:13:15;32.70;99.90
7214;DHT22;3648;50.614;13.830;2022-08-03T12:15:50;32.70;99.90
7214;DHT22;3648;50.614;13.830;2022-08-03T12:18:18;32.60;99.90
7214;DHT22;3648;50.614;13.830;2022-08-03T12:20:47;32.70;99.90
7214;DHT22;3648;50.614;13.830;2022-08-03T12:23:15;32.80;99.90
7214;DHT22;3648;50.614;13.830;2022-08-03T12:25:44;32.80;99.90
7214;DHT22;3648;50.614;13.830;2022-08-03T12:28:14;32.90;99.90
7214;DHT22;3648;50.614;13.830;2022-08-03T12:30:47;32.90;99.90
7214;DHT22;3648;50.614;13.830;2022-08-03T12:33:21;33.00;99.90
7214;DHT22;3648;50.614;13.830;2022-08-03T12:35:50;32.90;99.90
7214;DHT22;3648;50.614;13.830;2022-08-03T12:38:28;33.00;99.90
7214;DHT22;3648;50.614;13.830;2022-08-03T12:40:59;33.00;99.90
7214;DHT22;3648;50.614;13.830;2022-08-03T12:43:52;33.00;99.90
7214;DHT22;3648;50.614;13.830;2022-08-03T12:46:40;33.10;99.90
7214;DHT22;3648;50.614;13.830;2022-08-03T12:52:04;33.30;99.90
7214;DHT22;3648;50.614;13.830;2022-08-03T12:55:01;33.10;99.90
7214;DHT22;3648;50.614;13.830;2022-08-03T12:57:39;33.30;99.90
7214;DHT22;3648;50.614;13.830;2022-08-03T13:00:10;33.40;99.90
7214;DHT22;3648;50.614;13.830;2022-08-03T13:02:39;33.40;99.90
7214;DHT22;3648;50.614;13.830;2022-08-03T13:05:10;33.30;99.90
7214;DHT22;3648;50.614;13.830;2022-08-03T13:07:40;33.30;99.90
7214;DHT22;3648;50.614;13.830;2022-08-03T13:10:08;33.40;99.90
7214;DHT22;3648;50.614;13.830;2022-08-03T13:12:45;33.30;99.90
7214;DHT22;3648;50.614;13.830;2022-08-03T13:15:14;33.40;99.90
7214;DHT22;3648;50.614;13.830;2022-08-03T13:17:42;33.40;99.90
7214;DHT22;3648;50.614;13.830;2022-08-03T13:20:10;33.20;99.90
7214;DHT22;3648;50.614;13.830;2022-08-03T13:22:37;33.30;99.90
7214;DHT22;3648;50.614;13.830;2022-08-03T13:25:05;33.30;99.90
7214;DHT22;3648;50.614;13.830;2022-08-03T13:27:33;33.30;99.90
7214;DHT22;3648;50.614;13.830;2022-08-03T13:30:00;33.30;99.90
7214;DHT22;3648;50.614;13.830;2022-08-03T13:32:28;33.40;99.90
7214;DHT22;3648;50.614;13.830;2022-08-03T13:34:56;33.40;99.90
7214;DHT22;3648;50.614;13.830;2022-08-03T13:37:24;33.20;99.90
7214;DHT22;3648;50.614;13.830;2022-08-03T13:39:51;33.40;99.90
7214;DHT22;3648;50.614;13.830;2022-08-03T13:42:18;33.40;99.90
7214;DHT22;3648;50.614;13.830;2022-08-03T13:44:45;33.40;99.90
7214;DHT22;3648;50.614;13.830;2022-08-03T13:47:12;33.50;99.90
7214;DHT22;3648;50.614;13.830;2022-08-03T13:49:39;33.50;99.90
7214;DHT22;3648;50.614;13.830;2022-08-03T13:52:08;33.50;99.90
7214;DHT22;3648;50.614;13.830;2022-08-03T13:54:34;33.50;99.90
7214;DHT22;3648;50.614;13.830;2022-08-03T13:57:01;33.50;99.90
7214;DHT22;3648;50.614;13.830;2022-08-03T13:59:28;33.60;99.90
7214;DHT22;3648;50.614;13.830;2022-08-03T14:01:55;33.60;99.90
7214;DHT22;3648;50.614;13.830;2022-08-03T14:04:22;33.60;99.90
7214;DHT22;3648;50.614;13.830;2022-08-03T14:06:49;33.60;99.90
7214;DHT22;3648;50.614;13.830;2022-08-03T14:09:18;33.60;99.90
7214;DHT22;3648;50.614;13.830;2022-08-03T14:11:45;33.60;99.90
7214;DHT22;3648;50.614;13.830;2022-08-03T14:14:12;33.60;99.90
7214;DHT22;3648;50.614;13.830;2022-08-03T14:16:39;33.60;99.90
7214;DHT22;3648;50.614;13.830;2022-08-03T14:19:07;33.60;99.90
7214;DHT22;3648;50.614;13.830;2022-08-03T14:21:34;33.60;99.90
7214;DHT22;3648;50.614;13.830;2022-08-03T14:24:01;33.60;99.90
7214;DHT22;3648;50.614;13.830;2022-08-03T14:26:30;33.70;99.90
7214;DHT22;3648;50.614;13.830;2022-08-03T14:28:57;33.70;99.90
7214;DHT22;3648;50.614;13.830;2022-08-03T14:31:24;33.80;99.90
7214;DHT22;3648;50.614;13.830;2022-08-03T14:33:51;33.80;99.90
7214;DHT22;3648;50.614;13.830;2022-08-03T14:36:18;33.80;99.90
7214;DHT22;3648;50.614;13.830;2022-08-03T14:38:45;33.80;99.90
7214;DHT22;3648;50.614;13.830;2022-08-03T14:41:12;33.70;99.90
7214;DHT22;3648;50.614;13.830;2022-08-03T14:43:40;33.60;99.90
7214;DHT22;3648;50.614;13.830;2022-08-03T14:46:07;33.60;99.90
7214;DHT22;3648;50.614;13.830;2022-08-03T14:48:34;33.60;99.90
7214;DHT22;3648;50.614;13.830;2022-08-03T14:51:01;33.50;99.90
7214;DHT22;3648;50.614;13.830;2022-08-03T14:53:28;33.40;99.90
7214;DHT22;3648;50.614;13.830;2022-08-03T14:55:55;33.40;99.90
7214;DHT22;3648;50.614;13.830;2022-08-03T14:58:23;33.40;99.90
7214;DHT22;3648;50.614;13.830;2022-08-03T15:00:53;33.40;99.90
7214;DHT22;3648;50.614;13.830;2022-08-03T15:03:22;33.40;99.90
7214;DHT22;3648;50.614;13.830;2022-08-03T15:05:49;33.40;99.90
7214;DHT22;3648;50.614;13.830;2022-08-03T15:08:17;33.40;99.90
7214;DHT22;3648;50.614;13.830;2022-08-03T15:10:44;33.50;99.90
7214;DHT22;3648;50.614;13.830;2022-08-03T15:13:11;33.50;99.90
7214;DHT22;3648;50.614;13.830;2022-08-03T15:15:38;33.50;99.90
7214;DHT22;3648;50.614;13.830;2022-08-03T15:18:07;33.50;99.90
7214;DHT22;3648;50.614;13.830;2022-08-03T15:20:34;33.50;99.90
7214;DHT22;3648;50.614;13.830;2022-08-03T15:23:01;33.60;99.90
7214;DHT22;3648;50.614;13.830;2022-08-03T15:25:28;33.50;99.90
7214;DHT22;3648;50.614;13.830;2022-08-03T15:27:55;33.50;99.90
7214;DHT22;3648;50.614;13.830;2022-08-03T15:30:22;33.40;99.90
7214;DHT22;3648;50.614;13.830;2022-08-03T15:32:49;33.40;99.90
7214;DHT22;3648;50.614;13.830;2022-08-03T15:35:17;33.20;99.90
7214;DHT22;3648;50.614;13.830;2022-08-03T15:37:44;33.10;99.90
7214;DHT22;3648;50.614;13.830;2022-08-03T15:40:11;33.00;99.90
7214;DHT22;3648;50.614;13.830;2022-08-03T15:42:38;32.90;99.90
7214;DHT22;3648;50.614;13.830;2022-08-03T15:45:06;32.90;99.90
7214;DHT22;3648;50.614;13.830;2022-08-03T15:47:34;32.90;99.90
7214;DHT22;3648;50.614;13.830;2022-08-03T15:50:02;32.80;99.90
7214;DHT22;3648;50.614;13.830;2022-08-03T15:52:30;32.90;99.90
7214;DHT22;3648;50.614;13.830;2022-08-03T15:54:57;32.90;99.90
7214;DHT22;3648;50.614;13.830;2022-08-03T15:57:24;32.90;99.90
7214;DHT22;3648;50.614;13.830;2022-08-03T15:59:51;33.00;99.90
7214;DHT22;3648;50.614;13.830;2022-08-03T16:02:18;33.20;99.90
7214;DHT22;3648;50.614;13.830;2022-08-03T16:04:45;33.40;99.90
7214;DHT22;3648;50.614;13.830;2022-08-03T16:07:12;33.50;99.90
7214;DHT22;3648;50.614;13.830;2022-08-03T16:09:42;33.50;99.90
7214;DHT22;3648;50.614;13.830;2022-08-03T16:12:10;33.50;99.90
7214;DHT22;3648;50.614;13.830;2022-08-03T16:14:37;33.60;99.90
7214;DHT22;3648;50.614;13.830;2022-08-03T16:17:04;33.50;99.90